sensor_id;sensor_type;location;lat;lon;timestamp;temperature;humidity
3986;DHT22;2007;48.750;9.278;2022-10-18T00:00:58;20.00;57.60
3986;DHT22;2007;48.750;9.278;2022-10-18T00:03:26;20.00;57.50
3986;DHT22;2007;48.750;9.278;2022-10-18T00:05:54;20.00;57.50
3986;DHT22;2007;48.750;9.278;2022-10-18T00:08:22;20.00;57.50
3986;DHT22;2007;48.750;9.278;2022-10-18T00:10:52;20.00;57.50
3986;DHT22;2007;48.750;9.278;2022-10-18T00:13:20;20.00;57.50
3986;DHT22;2007;48.750;9.278;2022-10-18T00:15:49;20.00;57.50
3986;DHT22;2007;48.750;9.278;2022-10-18T00:18:17;20.00;57.50
3986;DHT22;2007;48.750;9.278;2022-10-18T00:20:46;20.00;57.50
3986;DHT22;2007;48.750;9.278;2022-10-18T00:23:22;20.00;57.50
3986;DHT22;2007;48.750;9.278;2022-10-18T00:25:59;19.90;57.40
3986;DHT22;2007;48.750;9.278;2022-10-18T00:28:27;20.00;57.60
3986;DHT22;2007;48.750;9.278;2022-10-18T00:30:55;20.00;57.50
3986;DHT22;2007;48.750;9.278;2022-10-18T00:33:23;20.00;57.50
3986;DHT22;2007;48.750;9.278;2022-10-18T00:35:51;20.00;57.50
3986;DHT22;2007;48.750;9.278;2022-10-18T00:38:19;20.00;57.50
3986;DHT22;2007;48.750;9.278;2022-10-18T00:40:47;20.00;57.50
3986;DHT22;2007;48.750;9.278;2022-10-18T00:43:17;20.00;57.50
3986;DHT22;2007;48.750;9.278;2022-10-18T00:45:45;20.00;57.50
3986;DHT22;2007;48.750;9.278;2022-10-18T00:48:13;20.00;57.50
3986;DHT22;2007;48.750;9.278;2022-10-18T00:50:42;20.00;57.50
3986;DHT22;2007;48.750;9.278;2022-10-18T00:53:14;20.00;57.50
3986;DHT22;2007;48.750;9.278;2022-10-18T00:55:43;20.00;57.50
3986;DHT22;2007;48.750;9.278;2022-10-18T00:58:13;20.00;57.50
3986;DHT22;2007;48.750;9.278;2022-10-18T01:00:43;20.00;57.50
3986;DHT22;2007;48.750;9.278;2022-10-18T01:03:10;20.00;57.50
3986;DHT22;2007;48.750;9.278;2022-10-18T01:05:42;20.00;58.20
3986;DHT22;2007;48.750;9.278;2022-10-18T01:08:31;20.00;57.50
3986;DHT22;2007;48.750;9.278;2022-10-18T01:11:12;20.00;57.50
3986;DHT22;2007;48.750;9.278;2022-10-18T01:13:55;20.00;57.50
3986;DHT22;2007;48.750;9.278;2022-10-18T01:16:27;20.00;57.50
3986;DHT22;2007;48.750;9.278;2022-10-18T01:18:59;20.00;57.50
3986;DHT22;2007;48.750;9.278;2022-10-18T01:21:37;20.00;57.50
3986;DHT22;2007;48.750;9.278;2022-10-18T01:27:32;20.00;57.50
3986;DHT22;2007;48.750;9.278;2022-10-18T01:30:25;20.00;57.50
3986;DHT22;2007;48.750;9.278;2022-10-18T01:33:01;20.00;57.50
3986;DHT22;2007;48.750;9.278;2022-10-18T01:35:33;20.00;57.50
3986;DHT22;2007;48.750;9.278;2022-10-18T01:38:05;20.00;57.50
3986;DHT22;2007;48.750;9.278;2022-10-18T01:40:38;20.00;57.50
3986;DHT22;2007;48.750;9.278;2022-10-18T01:43:08;20.00;57.50
3986;DHT22;2007;48.750;9.278;2022-10-18T01:45:39;20.00;57.50
3986;DHT22;2007;48.750;9.278;2022-10-18T01:48:09;20.00;57.50
3986;DHT22;2007;48.750;9.278;2022-10-18T01:50:38;20.00;57.50
3986;DHT22;2007;48.750;9.278;2022-10-18T01:53:29;20.00;57.50
3986;DHT22;2007;48.750;9.278;2022-10-18T01:56:33;20.00;57.50
3986;DHT22;2007;48.750;9.278;2022-10-18T01:59:14;20.00;57.50
3986;DHT22;2007;48.750;9.278;2022-10-18T02:01:53;20.00;57.50
3986;DHT22;2007;48.750;9.278;2022-10-18T02:04:32;20.00;57.50
3986;DHT22;2007;48.750;9.278;2022-10-18T02:07:06;20.00;57.50
3986;DHT22;2007;48.750;9.278;2022-10-18T02:09:41;20.00;57.50
3986;DHT22;2007;48.750;9.278;2022-10-18T02:12:13;20.00;57.50
3986;DHT22;2007;48.750;9.278;2022-10-18T02:14:42;20.00;57.50
3986;DHT22;2007;48.750;9.278;2022-10-18T02:17:14;20.00;57.60
3986;DHT22;2007;48.750;9.278;2022-10-18T02:19:47;20.00;57.50
3986;DHT22;2007;48.750;9.278;2022-10-18T02:22:16;20.00;57.50
3986;DHT22;2007;48.750;9.278;2022-10-18T02:24:48;20.00;57.50
3986;DHT22;2007;48.750;9.278;2022-10-18T02:27:17;20.00;57.50
3986;DHT22;2007;48.750;9.278;2022-10-18T02:29:46;20.00;57.70
3986;DHT22;2007;48.750;9.278;2022-10-18T02:32:20;20.00;57.50
3986;DHT22;2007;48.750;9.278;2022-10-18T02:34:56;20.00;57.50
3986;DHT22;2007;48.750;9.278;2022-10-18T02:37:27;19.90;57.40
3986;DHT22;2007;48.750;9.278;2022-10-18T02:39:57;20.00;57.50
3986;DHT22;2007;48.750;9.278;2022-10-18T02:42:32;20.00;57.50
3986;DHT22;2007;48.750;9.278;2022-10-18T02:45:00;19.90;57.40
3986;DHT22;2007;48.750;9.278;2022-10-18T02:47:30;20.00;57.50
3986;DHT22;2007;48.750;9.278;2022-10-18T02:49:58;19.90;57.40
3986;DHT22;2007;48.750;9.278;2022-10-18T02:52:26;19.90;57.40
3986;DHT22;2007;48.750;9.278;2022-10-18T02:54:54;20.00;57.50
3986;DHT22;2007;48.750;9.278;2022-10-18T02:57:21;20.00;57.50
3986;DHT22;2007;48.750;9.278;2022-10-18T02:59:49;19.90;57.40
3986;DHT22;2007;48.750;9.278;2022-10-18T03:02:17;19.90;57.40
3986;DHT22;2007;48.750;9.278;2022-10-18T03:04:46;19.90;57.50
3986;DHT22;2007;48.750;9.278;2022-10-18T03:07:14;19.90;57.40
3986;DHT22;2007;48.750;9.278;2022-10-18T03:09:42;20.00;57.50
3986;DHT22;2007;48.750;9.278;2022-10-18T03:12:10;19.90;57.40
3986;DHT22;2007;48.750;9.278;2022-10-18T03:14:38;20.00;57.50
3986;DHT22;2007;48.750;9.278;2022-10-18T03:17:06;20.00;57.60
3986;DHT22;2007;48.750;9.278;2022-10-18T03:19:33;19.90;57.40
3986;DHT22;2007;48.750;9.278;2022-10-18T03:22:03;19.90;57.50
3986;DHT22;2007;48.750;9.278;2022-10-18T03:24:30;19.90;57.40
3986;DHT22;2007;48.750;9.278;2022-10-18T03:26:58;19.90;58.10
3986;DHT22;2007;48.750;9.278;2022-10-18T03:29:26;19.90;57.40
3986;DHT22;2007;48.750;9.278;2022-10-18T03:31:54;19.90;57.40
3986;DHT22;2007;48.750;9.278;2022-10-18T03:34:22;19.90;57.50
3986;DHT22;2007;48.750;9.278;2022-10-18T03:36:50;19.90;57.50
3986;DHT22;2007;48.750;9.278;2022-10-18T03:39:19;19.90;57.40
3986;DHT22;2007;48.750;9.278;2022-10-18T03:41:47;19.90;57.50
3986;DHT22;2007;48.750;9.278;2022-10-18T03:44:15;19.90;57.40
3986;DHT22;2007;48.750;9.278;2022-10-18T03:46:42;19.90;57.50
3986;DHT22;2007;48.750;9.278;2022-10-18T03:49:10;19.90;57.40
3986;DHT22;2007;48.750;9.278;2022-10-18T03:51:38;19.90;57.40
3986;DHT22;2007;48.750;9.278;2022-10-18T03:54:06;19.90;57.50
3986;DHT22;2007;48.750;9.278;2022-10-18T03:56:35;19.90;57.40
3986;DHT22;2007;48.750;9.278;2022-10-18T03:59:03;19.90;57.40
3986;DHT22;2007;48.750;9.278;2022-10-18T04:01:31;19.90;57.50
3986;DHT22;2007;48.750;9.278;2022-10-18T04:03:59;19.90;57.40
3986;DHT22;2007;48.750;9.278;2022-10-18T04:06:27;19.90;57.40
3986;DHT22;2007;48.750;9.278;2022-10-18T04:08:54;19.90;57.40
3986;DHT22;2007;48.750;9.278;2022-10-18T04:11:22;19.90;57.40
3986;DHT22;2007;48.750;9.278;2022-10-18T04:13:51;19.90;57.40
3986;DHT22;2007;48.750;9.278;2022-10-18T04:16:19;19.90;57.50
3986;DHT22;2007;48.750;9.278;2022-10-18T04:18:48;19.90;57.50
3986;DHT22;2007;48.750;9.278;2022-10-18T04:21:16;19.90;57.50
3986;DHT22;2007;48.750;9.278;2022-10-18T04:23:46;19.90;57.50
3986;DHT22;2007;48.750;9.278;2022-10-18T04:26:14;19.90;57.50
3986;DHT22;2007;48.750;9.278;2022-10-18T04:28:42;19.90;57.40
3986;DHT22;2007;48.750;9.278;2022-10-18T04:31:12;19.90;57.50
3986;DHT22;2007;48.750;9.278;2022-10-18T04:33:39;19.90;57.50
3986;DHT22;2007;48.750;9.278;2022-10-18T04:36:07;19.90;57.40
3986;DHT22;2007;48.750;9.278;2022-10-18T04:38:35;19.90;57.50
3986;DHT22;2007;48.750;9.278;2022-10-18T04:41:03;19.90;57.50
3986;DHT22;2007;48.750;9.278;2022-10-18T04:43:31;19.90;57.50
3986;DHT22;2007;48.750;9.278;2022-10-18T04:45:59;19.90;57.50
3986;DHT22;2007;48.750;9.278;2022-10-18T04:48:28;19.90;57.50
3986;DHT22;2007;48.750;9.278;2022-10-18T04:50:56;19.90;57.50
3986;DHT22;2007;48.750;9.278;2022-10-18T04:53:24;19.90;57.40
3986;DHT22;2007;48.750;9.278;2022-10-18T04:55:52;19.90;57.50
3986;DHT22;2007;48.750;9.278;2022-10-18T04:58:20;19.90;57.50
3986;DHT22;2007;48.750;9.278;2022-10-18T05:00:48;19.90;57.50
3986;DHT22;2007;48.750;9.278;2022-10-18T05:03:16;19.90;57.50
3986;DHT22;2007;48.750;9.278;2022-10-18T05:05:45;19.90;57.50
3986;DHT22;2007;48.750;9.278;2022-10-18T05:08:27;19.90;57.50
3986;DHT22;2007;48.750;9.278;2022-10-18T05:10:55;19.90;57.50
3986;DHT22;2007;48.750;9.278;2022-10-18T05:13:23;19.90;57.50
3986;DHT22;2007;48.750;9.278;2022-10-18T05:15:51;19.90;57.50
3986;DHT22;2007;48.750;9.278;2022-10-18T05:18:19;19.90;57.40
3986;DHT22;2007;48.750;9.278;2022-10-18T05:20:48;19.90;57.50
3986;DHT22;2007;48.750;9.278;2022-10-18T05:23:16;19.90;57.50
3986;DHT22;2007;48.750;9.278;2022-10-18T05:25:43;19.90;57.50
3986;DHT22;2007;48.750;9.278;2022-10-18T05:28:11;19.90;57.50
3986;DHT22;2007;48.750;9.278;2022-10-18T05:31:00;19.90;57.50
3986;DHT22;2007;48.750;9.278;2022-10-18T05:33:28;19.80;57.40
3986;DHT22;2007;48.750;9.278;2022-10-18T05:35:58;19.90;57.50
3986;DHT22;2007;48.750;9.278;2022-10-18T05:38:26;19.90;57.50
3986;DHT22;2007;48.750;9.278;2022-10-18T05:40:56;19.90;57.50
3986;DHT22;2007;48.750;9.278;2022-10-18T05:43:26;19.90;57.50
3986;DHT22;2007;48.750;9.278;2022-10-18T05:45:54;19.90;57.50
3986;DHT22;2007;48.750;9.278;2022-10-18T05:48:22;19.90;57.50
3986;DHT22;2007;48.750;9.278;2022-10-18T05:50:50;19.90;57.50
3986;DHT22;2007;48.750;9.278;2022-10-18T05:53:19;19.90;57.50
3986;DHT22;2007;48.750;9.278;2022-10-18T05:56:03;19.90;57.50
3986;DHT22;2007;48.750;9.278;2022-10-18T05:58:31;19.90;57.50
3986;DHT22;2007;48.750;9.278;2022-10-18T06:00:59;19.90;57.50
3986;DHT22;2007;48.750;9.278;2022-10-18T06:03:27;19.80;57.40
3986;DHT22;2007;48.750;9.278;2022-10-18T06:05:58;19.80;57.40
3986;DHT22;2007;48.750;9.278;2022-10-18T06:08:28;19.80;57.40
3986;DHT22;2007;48.750;9.278;2022-10-18T06:10:56;19.90;57.50
3986;DHT22;2007;48.750;9.278;2022-10-18T06:13:23;19.80;57.40
3986;DHT22;2007;48.750;9.278;2022-10-18T06:15:54;19.80;57.40
3986;DHT22;2007;48.750;9.278;2022-10-18T06:18:23;19.80;57.40
3986;DHT22;2007;48.750;9.278;2022-10-18T06:20:56;19.80;57.40
3986;DHT22;2007;48.750;9.278;2022-10-18T06:23:24;19.80;57.50
3986;DHT22;2007;48.750;9.278;2022-10-18T06:25:56;19.80;57.40
3986;DHT22;2007;48.750;9.278;2022-10-18T06:28:25;19.80;57.50
3986;DHT22;2007;48.750;9.278;2022-10-18T06:30:53;19.80;57.40
3986;DHT22;2007;48.750;9.278;2022-10-18T06:33:21;19.80;57.40
3986;DHT22;2007;48.750;9.278;2022-10-18T06:35:56;19.80;57.40
3986;DHT22;2007;48.750;9.278;2022-10-18T06:38:24;19.80;57.40
3986;DHT22;2007;48.750;9.278;2022-10-18T06:40:54;19.80;57.40
3986;DHT22;2007;48.750;9.278;2022-10-18T06:43:22;19.80;57.40
3986;DHT22;2007;48.750;9.278;2022-10-18T06:45:51;19.80;57.50
3986;DHT22;2007;48.750;9.278;2022-10-18T06:48:19;19.80;57.40
3986;DHT22;2007;48.750;9.278;2022-10-18T06:50:52;19.80;57.50
3986;DHT22;2007;48.750;9.278;2022-10-18T06:53:20;19.80;57.40
3986;DHT22;2007;48.750;9.278;2022-10-18T06:55:48;19.80;57.40
3986;DHT22;2007;48.750;9.278;2022-10-18T06:58:18;19.80;57.50
3986;DHT22;2007;48.750;9.278;2022-10-18T07:00:45;19.80;57.50
3986;DHT22;2007;48.750;9.278;2022-10-18T07:03:13;19.80;57.50
3986;DHT22;2007;48.750;9.278;2022-10-18T07:05:41;19.80;57.40
3986;DHT22;2007;48.750;9.278;2022-10-18T07:08:09;19.80;57.40
3986;DHT22;2007;48.750;9.278;2022-10-18T07:10:37;19.80;57.40
3986;DHT22;2007;48.750;9.278;2022-10-18T07:13:05;19.80;57.50
3986;DHT22;2007;48.750;9.278;2022-10-18T07:16:04;19.80;57.50
3986;DHT22;2007;48.750;9.278;2022-10-18T07:18:33;19.80;57.50
3986;DHT22;2007;48.750;9.278;2022-10-18T07:21:02;19.80;57.50
3986;DHT22;2007;48.750;9.278;2022-10-18T07:23:31;19.80;57.50
3986;DHT22;2007;48.750;9.278;2022-10-18T07:26:00;19.80;57.50
3986;DHT22;2007;48.750;9.278;2022-10-18T07:28:28;19.80;57.50
3986;DHT22;2007;48.750;9.278;2022-10-18T07:30:56;19.80;57.50
3986;DHT22;2007;48.750;9.278;2022-10-18T07:33:32;19.80;57.50
3986;DHT22;2007;48.750;9.278;2022-10-18T07:36:00;19.80;57.50
3986;DHT22;2007;48.750;9.278;2022-10-18T07:38:29;19.80;57.50
3986;DHT22;2007;48.750;9.278;2022-10-18T07:40:57;19.80;57.50
3986;DHT22;2007;48.750;9.278;2022-10-18T07:43:25;19.80;57.50
3986;DHT22;2007;48.750;9.278;2022-10-18T07:45:54;19.80;57.50
3986;DHT22;2007;48.750;9.278;2022-10-18T07:48:22;19.80;57.50
3986;DHT22;2007;48.750;9.278;2022-10-18T07:50:52;19.80;57.50
3986;DHT22;2007;48.750;9.278;2022-10-18T07:53:20;19.80;57.50
3986;DHT22;2007;48.750;9.278;2022-10-18T07:55:48;19.80;57.50
3986;DHT22;2007;48.750;9.278;2022-10-18T07:58:16;19.80;57.50
3986;DHT22;2007;48.750;9.278;2022-10-18T08:00:44;19.80;57.50
3986;DHT22;2007;48.750;9.278;2022-10-18T08:03:11;19.80;57.50
3986;DHT22;2007;48.750;9.278;2022-10-18T08:05:39;19.80;57.50
3986;DHT22;2007;48.750;9.278;2022-10-18T08:08:08;19.80;57.50
3986;DHT22;2007;48.750;9.278;2022-10-18T08:10:36;19.80;57.50
3986;DHT22;2007;48.750;9.278;2022-10-18T08:13:04;19.80;57.50
3986;DHT22;2007;48.750;9.278;2022-10-18T08:15:32;19.80;57.60
3986;DHT22;2007;48.750;9.278;2022-10-18T08:18:00;19.80;57.50
3986;DHT22;2007;48.750;9.278;2022-10-18T08:20:28;19.80;57.50
3986;DHT22;2007;48.750;9.278;2022-10-18T08:22:57;19.80;57.50
3986;DHT22;2007;48.750;9.278;2022-10-18T08:25:28;19.80;57.50
3986;DHT22;2007;48.750;9.278;2022-10-18T08:27:56;19.80;57.50
3986;DHT22;2007;48.750;9.278;2022-10-18T08:30:23;19.80;57.50
3986;DHT22;2007;48.750;9.278;2022-10-18T08:32:51;19.80;57.50
3986;DHT22;2007;48.750;9.278;2022-10-18T08:35:19;19.80;57.60
3986;DHT22;2007;48.750;9.278;2022-10-18T08:37:47;19.80;57.50
3986;DHT22;2007;48.750;9.278;2022-10-18T08:40:15;19.80;57.50
3986;DHT22;2007;48.750;9.278;2022-10-18T08:42:56;19.80;57.50
3986;DHT22;2007;48.750;9.278;2022-10-18T08:45:26;19.80;57.50
3986;DHT22;2007;48.750;9.278;2022-10-18T08:48:16;19.80;57.50
3986;DHT22;2007;48.750;9.278;2022-10-18T08:50:47;19.80;57.50
3986;DHT22;2007;48.750;9.278;2022-10-18T08:53:19;19.80;57.60
3986;DHT22;2007;48.750;9.278;2022-10-18T08:55:53;19.80;57.60
3986;DHT22;2007;48.750;9.278;2022-10-18T08:58:25;19.80;57.60
3986;DHT22;2007;48.750;9.278;2022-10-18T09:01:02;19.80;57.50
3986;DHT22;2007;48.750;9.278;2022-10-18T09:03:47;19.80;57.60
3986;DHT22;2007;48.750;9.278;2022-10-18T09:06:21;19.80;57.60
3986;DHT22;2007;48.750;9.278;2022-10-18T09:09:00;19.80;57.60
3986;DHT22;2007;48.750;9.278;2022-10-18T09:11:43;19.80;57.60
3986;DHT22;2007;48.750;9.278;2022-10-18T09:14:41;19.80;57.60
3986;DHT22;2007;48.750;9.278;2022-10-18T09:17:20;19.80;57.60
3986;DHT22;2007;48.750;9.278;2022-10-18T09:20:04;19.80;57.60
3986;DHT22;2007;48.750;9.278;2022-10-18T09:22:42;19.80;57.60
3986;DHT22;2007;48.750;9.278;2022-10-18T09:25:18;19.80;57.60
3986;DHT22;2007;48.750;9.278;2022-10-18T09:27:54;19.80;57.60
3986;DHT22;2007;48.750;9.278;2022-10-18T09:30:41;19.80;57.60
3986;DHT22;2007;48.750;9.278;2022-10-18T09:33:23;19.80;57.60
3986;DHT22;2007;48.750;9.278;2022-10-18T09:35:55;19.80;57.60
3986;DHT22;2007;48.750;9.278;2022-10-18T09:38:27;19.80;57.60
3986;DHT22;2007;48.750;9.278;2022-10-18T09:40:59;19.80;57.60
3986;DHT22;2007;48.750;9.278;2022-10-18T09:43:38;19.80;57.60
3986;DHT22;2007;48.750;9.278;2022-10-18T09:46:10;19.80;57.60
3986;DHT22;2007;48.750;9.278;2022-10-18T09:48:44;19.80;57.60
3986;DHT22;2007;48.750;9.278;2022-10-18T09:51:15;19.80;57.60
3986;DHT22;2007;48.750;9.278;2022-10-18T09:54:03;19.80;57.60
3986;DHT22;2007;48.750;9.278;2022-10-18T09:56:36;19.80;57.60
3986;DHT22;2007;48.750;9.278;2022-10-18T09:59:30;19.80;57.60
3986;DHT22;2007;48.750;9.278;2022-10-18T10:02:00;19.70;57.50
3986;DHT22;2007;48.750;9.278;2022-10-18T10:04:28;19.80;57.60
3986;DHT22;2007;48.750;9.278;2022-10-18T10:06:59;19.80;57.60
3986;DHT22;2007;48.750;9.278;2022-10-18T10:09:28;19.80;57.60
3986;DHT22;2007;48.750;9.278;2022-10-18T10:11:57;19.80;57.60
3986;DHT22;2007;48.750;9.278;2022-10-18T10:14:27;19.80;57.60
3986;DHT22;2007;48.750;9.278;2022-10-18T10:16:57;19.80;57.60
3986;DHT22;2007;48.750;9.278;2022-10-18T10:19:31;19.80;57.60
3986;DHT22;2007;48.750;9.278;2022-10-18T10:22:02;19.80;57.60
3986;DHT22;2007;48.750;9.278;2022-10-18T10:24:47;19.80;57.60
3986;DHT22;2007;48.750;9.278;2022-10-18T10:27:20;19.80;57.60
3986;DHT22;2007;48.750;9.278;2022-10-18T10:29:58;19.80;57.60
3986;DHT22;2007;48.750;9.278;2022-10-18T10:32:44;19.80;57.60
3986;DHT22;2007;48.750;9.278;2022-10-18T10:35:23;19.80;57.70
3986;DHT22;2007;48.750;9.278;2022-10-18T10:38:21;19.80;57.70
3986;DHT22;2007;48.750;9.278;2022-10-18T10:40:50;19.80;57.70
3986;DHT22;2007;48.750;9.278;2022-10-18T10:43:21;19.80;57.60
3986;DHT22;2007;48.750;9.278;2022-10-18T10:46:06;19.80;57.70
3986;DHT22;2007;48.750;9.278;2022-10-18T10:48:44;19.80;57.70
3986;DHT22;2007;48.750;9.278;2022-10-18T10:51:16;19.80;57.70
3986;DHT22;2007;48.750;9.278;2022-10-18T10:53:50;19.80;57.70
3986;DHT22;2007;48.750;9.278;2022-10-18T10:56:25;19.80;57.70
3986;DHT22;2007;48.750;9.278;2022-10-18T10:58:55;19.80;57.70
3986;DHT22;2007;48.750;9.278;2022-10-18T11:01:30;19.80;57.70
3986;DHT22;2007;48.750;9.278;2022-10-18T11:04:01;19.80;57.70
3986;DHT22;2007;48.750;9.278;2022-10-18T11:09:26;19.80;57.80
3986;DHT22;2007;48.750;9.278;2022-10-18T11:12:11;19.80;57.80
3986;DHT22;2007;48.750;9.278;2022-10-18T11:14:44;19.80;57.80
3986;DHT22;2007;48.750;9.278;2022-10-18T11:17:28;19.80;57.80
3986;DHT22;2007;48.750;9.278;2022-10-18T11:20:15;19.80;57.80
3986;DHT22;2007;48.750;9.278;2022-10-18T11:22:56;19.80;57.80
3986;DHT22;2007;48.750;9.278;2022-10-18T11:25:33;19.80;57.80
3986;DHT22;2007;48.750;9.278;2022-10-18T11:28:06;19.80;57.80
3986;DHT22;2007;48.750;9.278;2022-10-18T11:30:48;19.80;57.80
3986;DHT22;2007;48.750;9.278;2022-10-18T11:33:24;19.80;57.80
3986;DHT22;2007;48.750;9.278;2022-10-18T11:36:19;19.80;57.80
3986;DHT22;2007;48.750;9.278;2022-10-18T11:38:55;19.80;57.80
3986;DHT22;2007;48.750;9.278;2022-10-18T11:41:30;19.80;57.80
3986;DHT22;2007;48.750;9.278;2022-10-18T11:43:59;19.80;57.80
3986;DHT22;2007;48.750;9.278;2022-10-18T11:46:40;19.80;57.80
3986;DHT22;2007;48.750;9.278;2022-10-18T11:49:26;19.80;57.80
3986;DHT22;2007;48.750;9.278;2022-10-18T11:52:05;19.80;57.80
3986;DHT22;2007;48.750;9.278;2022-10-18T11:54:46;19.80;57.80
3986;DHT22;2007;48.750;9.278;2022-10-18T11:57:30;19.80;57.90
3986;DHT22;2007;48.750;9.278;2022-10-18T12:00:12;19.80;57.80
3986;DHT22;2007;48.750;9.278;2022-10-18T12:02:55;19.80;57.80
3986;DHT22;2007;48.750;9.278;2022-10-18T12:05:29;19.80;57.80
3986;DHT22;2007;48.750;9.278;2022-10-18T12:08:02;19.80;57.80
3986;DHT22;2007;48.750;9.278;2022-10-18T12:10:34;19.80;57.80
3986;DHT22;2007;48.750;9.278;2022-10-18T12:13:26;19.80;57.80
3986;DHT22;2007;48.750;9.278;2022-10-18T12:15:56;19.80;57.80
3986;DHT22;2007;48.750;9.278;2022-10-18T12:18:24;19.80;57.80
3986;DHT22;2007;48.750;9.278;2022-10-18T12:20:55;19.80;57.80
3986;DHT22;2007;48.750;9.278;2022-10-18T12:23:33;19.80;57.80
3986;DHT22;2007;48.750;9.278;2022-10-18T12:26:06;19.80;57.80
3986;DHT22;2007;48.750;9.278;2022-10-18T12:28:46;19.80;57.80
3986;DHT22;2007;48.750;9.278;2022-10-18T12:31:21;19.80;57.80
3986;DHT22;2007;48.750;9.278;2022-10-18T12:33:52;19.80;57.80
3986;DHT22;2007;48.750;9.278;2022-10-18T12:36:35;19.80;57.80
3986;DHT22;2007;48.750;9.278;2022-10-18T12:39:20;19.80;57.80
3986;DHT22;2007;48.750;9.278;2022-10-18T12:42:18;19.80;57.70
3986;DHT22;2007;48.750;9.278;2022-10-18T12:44:47;19.80;57.80
3986;DHT22;2007;48.750;9.278;2022-10-18T12:47:22;19.80;57.80
3986;DHT22;2007;48.750;9.278;2022-10-18T12:49:57;19.80;57.80
3986;DHT22;2007;48.750;9.278;2022-10-18T12:52:28;19.80;57.80
3986;DHT22;2007;48.750;9.278;2022-10-18T12:55:02;19.80;57.80
3986;DHT22;2007;48.750;9.278;2022-10-18T12:58:01;19.80;57.80
3986;DHT22;2007;48.750;9.278;2022-10-18T13:00:53;19.80;57.80
3986;DHT22;2007;48.750;9.278;2022-10-18T13:03:40;19.80;57.80
3986;DHT22;2007;48.750;9.278;2022-10-18T13:06:16;19.80;57.80
3986;DHT22;2007;48.750;9.278;2022-10-18T13:08:44;19.80;57.80
3986;DHT22;2007;48.750;9.278;2022-10-18T13:11:27;19.80;57.80
3986;DHT22;2007;48.750;9.278;2022-10-18T13:14:26;19.80;57.80
3986;DHT22;2007;48.750;9.278;2022-10-18T13:17:02;19.80;57.80
3986;DHT22;2007;48.750;9.278;2022-10-18T13:19:39;19.80;57.80
3986;DHT22;2007;48.750;9.278;2022-10-18T13:22:47;19.80;57.80
3986;DHT22;2007;48.750;9.278;2022-10-18T13:25:21;19.80;57.80
3986;DHT22;2007;48.750;9.278;2022-10-18T13:27:55;19.80;57.90
3986;DHT22;2007;48.750;9.278;2022-10-18T13:30:36;19.80;57.90
3986;DHT22;2007;48.750;9.278;2022-10-18T13:33:28;19.80;57.80
3986;DHT22;2007;48.750;9.278;2022-10-18T13:35:58;19.80;58.50
3986;DHT22;2007;48.750;9.278;2022-10-18T13:38:43;19.80;57.80
3986;DHT22;2007;48.750;9.278;2022-10-18T13:41:15;19.80;57.80
3986;DHT22;2007;48.750;9.278;2022-10-18T13:43:58;19.80;57.80
3986;DHT22;2007;48.750;9.278;2022-10-18T13:49:34;19.80;57.90
3986;DHT22;2007;48.750;9.278;2022-10-18T13:52:09;19.80;57.90
3986;DHT22;2007;48.750;9.278;2022-10-18T13:55:00;19.80;57.90
3986;DHT22;2007;48.750;9.278;2022-10-18T13:57:44;19.90;57.90
3986;DHT22;2007;48.750;9.278;2022-10-18T14:00:23;19.80;57.90
3986;DHT22;2007;48.750;9.278;2022-10-18T14:03:15;19.80;57.90
3986;DHT22;2007;48.750;9.278;2022-10-18T14:06:10;19.90;58.00
3986;DHT22;2007;48.750;9.278;2022-10-18T14:08:45;19.90;57.90
3986;DHT22;2007;48.750;9.278;2022-10-18T14:11:21;19.90;58.00
3986;DHT22;2007;48.750;9.278;2022-10-18T14:13:54;19.90;57.90
3986;DHT22;2007;48.750;9.278;2022-10-18T14:16:29;19.90;58.60
3986;DHT22;2007;48.750;9.278;2022-10-18T14:19:06;19.90;57.90
3986;DHT22;2007;48.750;9.278;2022-10-18T14:21:39;19.90;57.90
3986;DHT22;2007;48.750;9.278;2022-10-18T14:24:16;19.90;57.90
3986;DHT22;2007;48.750;9.278;2022-10-18T14:26:46;19.80;57.90
3986;DHT22;2007;48.750;9.278;2022-10-18T14:29:18;19.90;57.90
3986;DHT22;2007;48.750;9.278;2022-10-18T14:31:52;19.90;57.90
3986;DHT22;2007;48.750;9.278;2022-10-18T14:34:20;19.90;57.90
3986;DHT22;2007;48.750;9.278;2022-10-18T14:36:50;19.90;57.90
3986;DHT22;2007;48.750;9.278;2022-10-18T14:39:20;19.90;57.90
3986;DHT22;2007;48.750;9.278;2022-10-18T14:41:50;19.90;57.90
3986;DHT22;2007;48.750;9.278;2022-10-18T14:44:20;19.90;57.90
3986;DHT22;2007;48.750;9.278;2022-10-18T14:46:52;19.90;57.90
3986;DHT22;2007;48.750;9.278;2022-10-18T14:49:25;19.90;57.90
3986;DHT22;2007;48.750;9.278;2022-10-18T14:51:56;19.90;57.90
3986;DHT22;2007;48.750;9.278;2022-10-18T14:54:28;19.90;57.90
3986;DHT22;2007;48.750;9.278;2022-10-18T14:56:58;19.90;57.90
3986;DHT22;2007;48.750;9.278;2022-10-18T14:59:28;19.90;57.90
3986;DHT22;2007;48.750;9.278;2022-10-18T15:01:59;19.90;57.90
3986;DHT22;2007;48.750;9.278;2022-10-18T15:04:28;19.90;57.90
3986;DHT22;2007;48.750;9.278;2022-10-18T15:07:02;19.90;57.90
3986;DHT22;2007;48.750;9.278;2022-10-18T15:09:32;19.90;57.80
3986;DHT22;2007;48.750;9.278;2022-10-18T15:12:01;19.90;57.90
3986;DHT22;2007;48.750;9.278;2022-10-18T15:14:29;19.90;57.90
3986;DHT22;2007;48.750;9.278;2022-10-18T15:17:00;19.90;57.80
3986;DHT22;2007;48.750;9.278;2022-10-18T15:19:31;19.90;57.90
3986;DHT22;2007;48.750;9.278;2022-10-18T15:22:03;19.90;57.90
3986;DHT22;2007;48.750;9.278;2022-10-18T15:25:10;19.90;57.80
3986;DHT22;2007;48.750;9.278;2022-10-18T15:27:41;19.90;57.90
3986;DHT22;2007;48.750;9.278;2022-10-18T15:30:17;19.90;57.80
3986;DHT22;2007;48.750;9.278;2022-10-18T15:32:47;19.90;57.90
3986;DHT22;2007;48.750;9.278;2022-10-18T15:35:18;19.90;57.80
3986;DHT22;2007;48.750;9.278;2022-10-18T15:37:54;19.90;57.80
3986;DHT22;2007;48.750;9.278;2022-10-18T15:40:35;19.90;57.90
3986;DHT22;2007;48.750;9.278;2022-10-18T15:45:50;19.90;57.90
3986;DHT22;2007;48.750;9.278;2022-10-18T15:48:23;19.90;57.80
3986;DHT22;2007;48.750;9.278;2022-10-18T15:50:53;19.90;58.50
3986;DHT22;2007;48.750;9.278;2022-10-18T15:53:40;19.90;57.80
3986;DHT22;2007;48.750;9.278;2022-10-18T15:56:25;19.90;57.80
3986;DHT22;2007;48.750;9.278;2022-10-18T15:58:54;19.90;57.90
3986;DHT22;2007;48.750;9.278;2022-10-18T16:01:30;19.90;57.80
3986;DHT22;2007;48.750;9.278;2022-10-18T16:04:00;19.90;57.90
3986;DHT22;2007;48.750;9.278;2022-10-18T16:06:30;19.90;57.80
3986;DHT22;2007;48.750;9.278;2022-10-18T16:09:02;19.90;57.90
3986;DHT22;2007;48.750;9.278;2022-10-18T16:11:30;19.90;57.80
3986;DHT22;2007;48.750;9.278;2022-10-18T16:13:58;19.90;57.80
3986;DHT22;2007;48.750;9.278;2022-10-18T16:16:27;19.90;57.80
3986;DHT22;2007;48.750;9.278;2022-10-18T16:18:56;19.90;57.80
3986;DHT22;2007;48.750;9.278;2022-10-18T16:21:26;19.90;57.80
3986;DHT22;2007;48.750;9.278;2022-10-18T16:23:54;19.90;57.80
3986;DHT22;2007;48.750;9.278;2022-10-18T16:26:24;19.90;57.80
3986;DHT22;2007;48.750;9.278;2022-10-18T16:28:53;19.90;57.80
3986;DHT22;2007;48.750;9.278;2022-10-18T16:31:22;19.90;57.80
3986;DHT22;2007;48.750;9.278;2022-10-18T16:33:52;19.90;57.80
3986;DHT22;2007;48.750;9.278;2022-10-18T16:36:21;19.90;57.80
3986;DHT22;2007;48.750;9.278;2022-10-18T16:38:50;19.90;57.80
3986;DHT22;2007;48.750;9.278;2022-10-18T16:41:18;19.90;57.80
3986;DHT22;2007;48.750;9.278;2022-10-18T16:43:47;19.90;57.80
3986;DHT22;2007;48.750;9.278;2022-10-18T16:46:18;19.90;57.80
3986;DHT22;2007;48.750;9.278;2022-10-18T16:48:47;19.90;57.80
3986;DHT22;2007;48.750;9.278;2022-10-18T16:51:16;20.00;57.90